• Join FlightAware (Why Join?)
  • Login
  • US Flag 
05:15AM EDT


 

Airport Tracker/Info


-or-


 

Live Flight TrackerFlight Track Log ✈ DAL1117 ✈ 16-May-2013 ✈ KDTW - KLAS

Flight Track Log - Related Links

Times and Time Zones

All times are in EDT time to prevent confusion due to time zone crossing. See the DAL1117 flight status page for this flight to view local times or setup timezone preferences in your user account.

Time Position Orientation Groundspeed Altitude Reporting Facility
EDT Latitude Longitude Course Direction KTS MPH feet Rate Location/Type
10:10PM 42.2286 -83.3650 209° Southwest 169 194 1,300  Level Cleveland Center
10:12PM 42.3011 -83.3767 353° North 254 292 2,900 1,920 Climbing Cleveland Center
10:13PM 42.3758 -83.3883 353° North 262 302 5,900 2,460 Climbing Cleveland Center
10:14PM 42.3922 -83.4847 283° West 273 314 8,900 2,280 Climbing Cleveland Center
10:15PM 42.1743 -84.1557 217° Southwest  Level Estimated
10:15PM 42.3164 -83.5233 201° Southwest 242 278 11,400  Level Cleveland Center
10:16PM 42.1660 -84.3160 209° Southwest  Level Estimated
10:16PM 42.2258 -83.5583 196° South 286 329 12,700  Level Cleveland Center
10:17PM 42.1308 -83.5986 197° South 339 390 14,500 1,620 Climbing Cleveland Center
10:18PM 42.0297 -83.6414 197° South 363 418 16,000 1,140 Climbing Cleveland Center
10:19PM 41.9242 -83.6894 199° South 386 444 16,800 1,380 Climbing Cleveland Center
10:20PM 41.8186 -83.7317 197° South 399 459 18,800 1,860 Climbing Cleveland Center
10:21PM 41.7111 -83.7794 198° South 405 466 20,600 1,800 Climbing Cleveland Center
10:22PM 41.6111 -83.8467 207° Southwest 411 473 22,400 1,560 Climbing Cleveland Center
10:23PM 41.5131 -83.9247 211° Southwest 411 473 23,800 1,200 Climbing Cleveland Center
10:24PM 41.4128 -84.0000 209° Southwest 416 479 24,900 1,080 Climbing Cleveland Center
10:25PM 41.3144 -84.0833 212° Southwest 422 486 26,000 1,080 Climbing Cleveland Center
10:26PM 41.2319 -84.1867 223° Southwest 406 467 27,100 960 Climbing Cleveland Center
10:27PM 41.1925 -84.3553 253° West 412 474 28,100 900 Climbing Chicago Center
10:28PM 41.1539 -84.5036 251° West 421 484 29,100 840 Climbing Chicago Center
10:29PM 41.1164 -84.6519 251° West 423 487 29,900 660 Climbing Chicago Center
10:30PM 41.0775 -84.8031 251° West 429 494 30,500 480 Climbing Chicago Center
10:31PM 41.0378 -84.9569 251° West 436 502 30,900 480 Climbing Chicago Center
10:32PM 40.9975 -85.1114 251° West 439 505 31,500 480 Climbing Chicago Center
10:33PM 40.9686 -85.2697 256° West 443 510 32,000 240 Climbing Chicago Center
10:34PM 40.9492 -85.4267 261° West 431 496 32,000  Level Chicago Center
10:35PM 40.9294 -85.5867 261° West 438 504 32,000  Level Chicago Center
10:36PM 40.9100 -85.7461 261° West 438 504 32,000  Level Chicago Center
10:37PM 40.8861 -85.9361 261° West 437 503 32,000  Level Chicago Center
10:38PM 40.8653 -86.0944 260° West 437 503 32,000  Level Chicago Center
10:39PM 40.8456 -86.2525 261° West 435 501 32,000  Level Chicago Center
10:41PM 40.8236 -86.4097 260° West 437 503 32,000  Level Chicago Center
10:42PM 40.8025 -86.5700 260° West 441 507 32,000  Level Chicago Center
10:43PM 40.7800 -86.7456 260° West 438 504 32,000  Level Chicago Center
10:44PM 40.7581 -86.9058 260° West 442 509 32,000  Level Chicago Center
10:45PM 40.7361 -87.0631 260° West 440 506 32,000  Level Chicago Center
10:46PM 40.7136 -87.2208 259° West 440 506 32,000  Level Chicago Center
10:47PM 40.6814 -87.3772 255° West 442 509 32,000  Level Chicago Center
10:48PM 40.6519 -87.5319 256° West 439 505 32,000  Level Chicago Center
10:49PM 40.6208 -87.6875 255° West 439 505 32,000  Level Chicago Center
10:50PM 40.5894 -87.8450 255° West 445 512 32,000  Level Chicago Center
10:51PM 40.5522 -88.0331 255° West 445 512 32,000  Level Chicago Center
10:52PM 40.5197 -88.1903 255° West 446 513 32,000  Level Chicago Center
10:53PM 40.4878 -88.3458 255° West 445 512 32,000  Level Chicago Center
10:54PM 40.4556 -88.5014 255° West 445 512 32,000  Level Chicago Center
10:55PM 40.4253 -88.6428 254° West 446 513 32,000  Level Chicago Center
10:56PM 40.3917 -88.8006 254° West 449 517 32,000  Level Chicago Center
10:57PM 40.3586 -88.9578 255° West 447 514 32,000  Level Chicago Center
10:58PM 40.3183 -89.1467 254° West 448 516 32,000  Level Chicago Center
10:59PM 40.2833 -89.3069 254° West 453 521 32,000  Level Chicago Center
11:00PM 40.2483 -89.4644 254° West 449 517 32,000  Level Chicago Center
11:01PM 40.2128 -89.6239 254° West 453 521 32,000  Level Chicago Center
11:02PM 40.1775 -89.7831 254° West 454 522 32,000  Level Chicago Center
11:03PM 40.1431 -89.9428 254° West 454 522 32,000  Level Chicago Center
11:04PM 40.1050 -90.1050 253° West 462 532 32,000  Level Chicago Center
11:05PM 40.0692 -90.2647 254° West 459 528 32,000  Level Chicago Center
11:06PM 40.0342 -90.4222 254° West 449 517 32,000  Level Chicago Center
11:07PM 40.0131 -90.5206 254° West 456 525 32,000  Level Kansas City Center
11:08PM 39.9764 -90.6794 253° West 456 525 32,000  Level Kansas City Center
11:09PM 39.9394 -90.8381 253° West 457 526 32,000  Level Kansas City Center
11:10PM 39.9036 -90.9922 253° West 455 524 32,000  Level Kansas City Center
11:11PM 39.8661 -91.1514 253° West 460 529 32,000  Level Kansas City Center
11:12PM 39.8208 -91.3417 253° West 460 529 32,000  Level Kansas City Center
11:13PM 39.7836 -91.4992 253° West 459 528 32,000  Level Kansas City Center
11:14PM 39.7456 -91.6578 253° West 461 531 32,000  Level Kansas City Center
11:15PM 39.7081 -91.8136 253° West 458 527 32,000  Level Kansas City Center
11:16PM 39.6692 -91.9706 252° West 458 527 32,000  Level Kansas City Center
11:17PM 39.6314 -92.1261 253° West 457 526 32,000  Level Kansas City Center
11:18PM 39.5942 -92.2814 253° West 453 521 32,000  Level Kansas City Center
11:19PM 39.5553 -92.4367 252° West 455 524 32,000  Level Kansas City Center
11:20PM 39.5089 -92.6225 252° West 454 522 32,000  Level Kansas City Center
11:21PM 39.4692 -92.7781 252° West 457 526 32,000  Level Kansas City Center
11:22PM 39.4297 -92.9339 252° West 457 526 32,000  Level Kansas City Center
11:23PM 39.3897 -93.0875 251° West 455 524 32,000  Level Kansas City Center
11:24PM 39.3503 -93.2425 252° West 456 525 32,000  Level Kansas City Center
11:25PM 39.3097 -93.3969 251° West 457 526 32,000  Level Kansas City Center
11:26PM 39.2686 -93.5644 252° West 455 524 32,000  Level Kansas City Center
11:27PM 39.2314 -93.7100 252° West 446 513 32,000  Level Kansas City Center
11:28PM 39.1861 -93.8811 251° West 450 518 32,000  Level Kansas City Center
11:29PM 39.1475 -94.0269 251° West 449 517 32,000  Level Kansas City Center
11:30PM 39.1008 -94.2000 251° West 456 525 32,000  Level Kansas City Center
11:31PM 39.0611 -94.3458 251° West 452 520 32,000  Level Kansas City Center
11:32PM 39.0219 -94.4928 251° West 453 521 32,000  Level Kansas City Center
11:33PM 38.9750 -94.6628 250° West 450 518 32,000  Level Kansas City Center
11:34PM 38.9350 -94.8097 251° West 452 520 32,000  Level Kansas City Center
11:35PM 38.8947 -94.9569 251° West 453 521 32,000  Level Kansas City Center
11:36PM 38.8472 -95.1272 250° West 451 519 32,000  Level Kansas City Center
11:37PM 38.8072 -95.2728 251° West 448 516 32,000  Level Kansas City Center
11:38PM 38.7667 -95.4186 250° West 451 519 32,000  Level Kansas City Center
11:39PM 38.7197 -95.5892 251° West 453 521 32,000  Level Kansas City Center
11:40PM 38.6783 -95.7333 250° West 451 519 32,000  Level Kansas City Center
11:41PM 38.6317 -95.9003 250° West 445 512 32,000  Level Kansas City Center
11:42PM 38.5908 -96.0419 250° West 444 511 32,000  Level Kansas City Center
11:43PM 38.5500 -96.1839 250° West 444 511 32,000  Level Kansas City Center
11:44PM 38.5017 -96.3503 250° West 446 513 32,000  Level Kansas City Center
11:45PM 38.4594 -96.4981 250° West 449 517 32,100  Climbing Kansas City Center
11:46PM 38.4200 -96.6317 249° West 445 512 32,000 -60 Descending Kansas City Center
11:47PM 38.3772 -96.7781 250° West 442 509 32,000  Level Kansas City Center
11:49PM 38.3344 -96.9244 250° West 441 507 32,000  Level Kansas City Center
11:50PM 38.2822 -97.1006 249° West 444 511 32,000  Level Kansas City Center
11:51PM 38.2383 -97.2478 249° West 445 512 32,000  Level Kansas City Center
11:52PM 38.1942 -97.3942 249° West 445 512 32,000  Level Kansas City Center
11:53PM 38.1494 -97.5397 249° West 440 506 32,000  Level Kansas City Center
11:54PM 38.1050 -97.6858 249° West 444 511 32,000  Level Kansas City Center
11:55PM 38.0622 -97.8281 249° West 444 511 32,000  Level Kansas City Center
11:56PM 38.0189 -97.9731 249° West 449 517 32,000  Level Kansas City Center
11:57PM 37.9647 -98.1456 248° West 450 518 32,000  Level Kansas City Center
11:58PM 37.9200 -98.2906 249° West 446 513 32,000  Level Kansas City Center
11:59PM 37.8744 -98.4361 248° West 446 513 32,000  Level Kansas City Center
12:00AM 37.8275 -98.5817 248° West 448 516 32,000  Level Kansas City Center
12:01AM 37.7819 -98.7272 248° West 447 514 32,000  Level Kansas City Center
12:02AM 37.7350 -98.8717 248° West 445 512 32,000  Level Kansas City Center
12:03AM 37.6894 -99.0153 248° West 443 510 32,000  Level Kansas City Center
12:04AM 37.6431 -99.1594 248° West 443 510 32,000  Level Kansas City Center
12:05AM 37.5967 -99.3031 248° West 443 510 32,000  Level Kansas City Center
12:06AM 37.5422 -99.4719 248° West 442 509 32,000  Level Kansas City Center
12:07AM 37.4972 -99.6097 248° West 443 510 32,000  Level Kansas City Center
12:08AM 37.4519 -99.7483 248° West 446 513 32,000  Level Kansas City Center
12:09AM 37.3986 -99.9103 248° West 448 516 32,000  Level Kansas City Center
12:10AM 37.3539 -100.0475 248° West 445 512 32,000  Level Kansas City Center
12:11AM 37.3006 -100.2069 247° West 442 509 32,000  Level Kansas City Center
12:12AM 37.2556 -100.3436 248° West 441 507 32,000  Level Kansas City Center
12:13AM 37.2106 -100.4792 247° West 440 506 32,000  Level Kansas City Center
12:14AM 37.1569 -100.6369 247° West 439 505 32,000  Level Kansas City Center
12:15AM 37.1106 -100.7725 247° West 439 505 32,000  Level Kansas City Center
12:16AM 37.0669 -100.9081 248° West 439 505 32,000  Level Kansas City Center
12:17AM 37.0528 -101.0797 264° West 444 511 32,000  Level Kansas City Center
12:18AM 37.0656 -101.2278 276° West 446 513 32,000  Level Kansas City Center
12:19AM 37.0775 -101.3753 276° West 445 512 32,000  Level Kansas City Center
12:19AM 37.0817 -101.4250 276° West 446 513 32,000  Level Albuquerque Center
12:20AM 37.0936 -101.5728 276° West 446 513 32,000  Level Albuquerque Center
12:21AM 37.1061 -101.7450 275° West 446 513 32,000  Level Albuquerque Center
12:22AM 37.1181 -101.8933 276° West 446 513 32,000  Level Albuquerque Center
12:23AM 37.1286 -102.0419 275° West 447 514 32,100  Climbing Albuquerque Center
12:24AM 37.1400 -102.1994 275° West 445 512 32,000 -60 Descending Albuquerque Center
12:25AM 37.1358 -102.3619 268° West 444 511 32,000  Level Albuquerque Center
12:26AM 37.1286 -102.5186 267° West 442 509 32,000  Level Albuquerque Center
12:27AM 37.1203 -102.6656 266° West 442 509 32,000  Level Albuquerque Center
12:29AM 37.1144 -102.8361 268° West 439 505 32,000  Level Albuquerque Center
12:30AM 37.1056 -102.9819 266° West 439 505 32,000  Level Albuquerque Center
12:31AM 37.0994 -103.1286 267° West 440 506 32,000  Level Albuquerque Center
12:32AM 37.0906 -103.3008 266° West 442 509 32,000  Level Albuquerque Center
12:33AM 37.0833 -103.4475 267° West 441 507 32,000  Level Albuquerque Center
12:34AM 37.0750 -103.5958 266° West 443 510 32,000  Level Albuquerque Center
12:35AM 37.0658 -103.7667 266° West 441 507 32,000  Level Albuquerque Center
12:36AM 37.0586 -103.9131 267° West 439 505 32,000  Level Albuquerque Center
12:37AM 37.0492 -104.0592 265° West 437 503 32,000  Level Albuquerque Center
12:38AM 37.0394 -104.2294 266° West 438 504 32,000  Level Albuquerque Center
12:39AM 37.0303 -104.3753 266° West 437 503 32,000  Level Albuquerque Center
12:40AM 37.0228 -104.5217 266° West 438 504 32,000  Level Albuquerque Center
12:41AM 37.0114 -104.6914 265° West 438 504 32,000  Level Albuquerque Center
12:42AM 37.0008 -104.8397 265° West 440 506 32,000  Level Denver Center
12:43AM 36.9914 -104.9814 265° West 438 504 32,000  Level Denver Center
12:44AM 36.9800 -105.1625 266° West 438 504 32,000  Level Denver Center
12:45AM 36.9717 -105.2978 266° West 436 502 32,000  Level Denver Center
12:46AM 36.9594 -105.4692 265° West 442 509 32,000  Level Denver Center
12:47AM 36.9492 -105.6169 265° West 446 513 32,100  Climbing Denver Center
12:48AM 36.9383 -105.7628 265° West 442 509 32,000 -60 Descending Denver Center
12:49AM 36.9264 -105.9322 265° West 439 505 32,000  Level Denver Center
12:50AM 36.9153 -106.0764 265° West 435 501 32,000  Level Denver Center
12:51AM 36.9050 -106.2294 265° West 430 495 32,000  Level Denver Center
12:52AM 36.8939 -106.3719 264° West 431 496 32,100 360 Climbing Denver Center
12:53AM 36.8808 -106.5419 265° West 439 505 32,800 780 Climbing Denver Center
12:54AM 36.8686 -106.6881 264° West 443 510 33,800 540 Climbing Denver Center
12:55AM 36.8575 -106.8333 265° West 440 506 34,000 60 Climbing Denver Center
12:56AM 36.8433 -107.0022 264° West 438 504 34,000  Level Denver Center
12:57AM 36.8319 -107.1475 264° West 440 506 34,000  Level Denver Center
12:58AM 36.8189 -107.2925 264° West 440 506 34,000  Level Denver Center
12:59AM 36.8044 -107.4631 264° West 442 509 34,000  Level Denver Center
01:00AM 36.7914 -107.6081 264° West 440 506 34,000  Level Denver Center
01:01AM 36.7794 -107.7528 264° West 440 506 34,000  Level Denver Center
01:02AM 36.7639 -107.9219 264° West 439 505 34,000  Level Denver Center
01:03AM 36.7517 -108.0675 264° West 442 509 34,000  Level Denver Center
01:04AM 36.7383 -108.2131 264° West 443 510 34,000  Level Denver Center
01:05AM 36.7250 -108.3844 265° West 444 511 34,000  Level Denver Center
01:06AM 36.7125 -108.5308 264° West 447 514 34,000  Level Denver Center
01:07AM 36.6997 -108.6764 264° West 444 511 34,000  Level Denver Center
01:08AM 36.6847 -108.8472 264° West 446 513 34,000  Level Denver Center
01:09AM 36.6714 -108.9911 263° West 441 507 34,000  Level Denver Center
01:10AM 36.6589 -109.1353 264° West 441 507 34,000  Level Denver Center
01:11AM 36.6431 -109.3006 263° West 435 501 34,000  Level Denver Center
01:12AM 36.6300 -109.4453 264° West 440 506 34,000  Level Denver Center
01:13AM 36.6158 -109.5903 263° West 443 510 34,000  Level Denver Center
01:14AM 36.5992 -109.7603 263° West 446 513 34,000  Level Denver Center
01:15AM 36.5856 -109.9069 263° West 447 514 34,000  Level Denver Center
01:16AM 36.5714 -110.0517 263° West 443 510 34,000  Level Denver Center
01:17AM 36.5569 -110.2003 263° West 437 503 34,000  Level Denver Center
01:18AM 36.5414 -110.3489 263° West 435 501 34,000  Level Denver Center
01:19AM 36.5267 -110.5000 263° West 439 505 34,000  Level Denver Center
01:20AM 36.5053 -110.6492 260° West 437 503 34,000 -300 Level Denver Center
01:21AM 36.4706 -110.7928 253° West 434 499 33,400 -840 Descending Denver Center
01:22AM 36.4361 -110.9386 254° West 439 505 32,400 -1,080 Descending Denver Center
01:23AM 36.3936 -111.1128 253° West 438 504 31,300 -1,080 Descending Denver Center
01:24AM 36.3600 -111.2561 254° West 436 502 30,300 -660 Descending Denver Center
01:25AM 36.3267 -111.3972 254° West 430 495 30,000 -180 Descending Denver Center
01:26AM 36.2931 -111.5394 254° West 430 495 30,000  Level Denver Center
01:27AM 36.2589 -111.6814 253° West 429 494 30,000  Level Denver Center
01:28AM 36.2247 -111.8222 253° West 428 493 30,000  Level Denver Center
01:29AM 36.2050 -111.9067 254° West 424 488 30,000 -660 Level Los Angeles Center
01:30AM 36.1686 -112.0483 252° West 433 498 29,000 -960 Descending Los Angeles Center
01:31AM 36.1350 -112.1850 253° West 426 490 28,100 -960 Descending Los Angeles Center
01:32AM 36.1033 -112.3200 254° West 409 471 27,100 -1,020 Descending Los Angeles Center
01:33AM 36.0711 -112.4478 253° West 391 450 26,100 -960 Descending Los Angeles Center
01:34AM 36.0394 -112.5667 252° West 367 422 25,200 -960 Descending Los Angeles Center
01:35AM 36.0094 -112.6847 253° West 362 417 24,200 -900 Descending Los Angeles Center
01:36AM 35.9783 -112.8014 252° West 359 413 23,200 -1,080 Descending Los Angeles Center
01:37AM 35.9472 -112.9586 256° West 357 411 21,900 -1,140 Descending Los Angeles Center
01:38AM 35.9294 -113.0942 261° West 390 449 20,900 -960 Descending Los Angeles Center
01:39AM 35.9111 -113.2225 260° West 390 449 20,000 -960 Descending Los Angeles Center
01:40AM 35.8942 -113.3447 260° West 372 428 19,000 -1,080 Descending Los Angeles Center
01:41AM 35.8767 -113.4661 260° West 365 420 17,900 -1,140 Descending Los Angeles Center
01:42AM 35.8583 -113.5956 260° West 362 417 16,800 -1,080 Descending Los Angeles Center
01:43AM 35.8403 -113.7194 260° West 366 421 15,800 -1,020 Descending Los Angeles Center
01:44AM 35.8225 -113.8442 260° West 369 425 14,800 -960 Descending Los Angeles Center
01:45AM 35.8036 -113.9686 259° West 370 426 13,900 -1,080 Descending Los Angeles Center
01:46AM 35.7878 -114.0764 260° West 363 418 13,000 -1,200 Descending Los Angeles Center
01:46AM 35.7819 -114.1108 258° West 354 407 12,700 -1,020 Descending Los Angeles Center
01:47AM 35.7739 -114.1581 258° West 355 409 12,300 -720 Descending Los Angeles Center
01:47AM 35.7656 -114.2211 261° West 332 382 12,000 -240 Descending Los Angeles Center
01:48AM 35.7581 -114.2886 262° West 314 361 12,000 -120 Level Los Angeles Center
01:48AM 35.7519 -114.3236 258° West 310 357 11,900 -840 Descending Los Angeles Center
01:49AM 35.7692 -114.3669 296° West 320 368 11,400 -1,020 Descending Los Angeles Center
01:49AM 35.8047 -114.4114 315° West 335 386 10,900 -900 Descending Los Angeles Center
01:50AM 35.8369 -114.4478 318° Northwest 339 390 10,500 -840 Descending Los Angeles Center
01:50AM 35.8725 -114.4925 314° West 338 389 10,100 -720 Descending Los Angeles Center
01:51AM 35.9022 -114.5267 317° Northwest 333 383 9,800 -600 Descending Los Angeles Center
01:52AM 35.9367 -114.5658 317° Northwest 323 372 9,500 -1,140 Descending Los Angeles Center
01:52AM 35.9878 -114.6283 315° West 309 356 8,200 -960 Descending Los Angeles Center
01:53AM 36.0367 -114.6836 318° Northwest 285 328 8,000 -180 Descending Los Angeles Center
01:54AM 36.0547 -114.7006 323° Northwest 280 322 8,000 -120 Level Los Angeles Center
01:54AM 36.0731 -114.7594 291° West 234 269 7,900 -420 Descending Los Angeles Center
01:55AM 36.0739 -114.7736 274° West 240 276 7,600 -1,200 Descending Los Angeles Center
01:55AM 36.0744 -114.8253 271° West 208 239 6,800 -1,200 Descending Los Angeles Center
01:56AM 36.0731 -114.8461 265° West 221 254 6,400 -1,020 Descending Los Angeles Center
01:56AM 36.0736 -114.8897 271° West 184 212 5,800 -1,020 Descending Los Angeles Center
01:57AM 36.0744 -114.9083 273° West 202 232 5,400 -1,020 Descending Los Angeles Center
01:57AM 36.0742 -114.9319 269° West 162 186 5,100 -840 Descending Los Angeles Center
01:58AM 36.0728 -114.9622 267° West 180 207 4,600 -900 Descending Los Angeles Center
01:58AM 36.0728 -115.0044 270° West 140 161 3,900 -840 Descending Los Angeles Center
01:59AM 36.0744 -115.0122 285° West 163 188 3,800 -660 Descending Los Angeles Center
01:59AM 36.0728 -115.0336 264° West 140 161 3,500 -900 Descending Los Angeles Center
02:00AM 36.0739 -115.0675 272° West 146 168 2,900 -780 Descending Los Angeles Center
02:00AM 36.0733 -115.1053 269° West 137 158 2,400 -720 Descending Los Angeles Center
02:01AM 36.0733 -115.1153 270° West 141 162 2,200 -840 Descending Los Angeles Center
02:03AM 36.0667 -115.1500 270° West  Level FlightAware Approximate